sensor_id;sensor_type;location;lat;lon;timestamp;temperature;humidity
21734;DHT22;11029;47.820;10.534;2024-03-08T00:00:32;0.00;79.80
21734;DHT22;11029;47.820;10.534;2024-03-08T00:03:19;-0.10;79.90
21734;DHT22;11029;47.820;10.534;2024-03-08T00:06:05;-0.10;80.40
21734;DHT22;11029;47.820;10.534;2024-03-08T00:08:51;-0.10;79.60
21734;DHT22;11029;47.820;10.534;2024-03-08T00:11:37;-0.10;79.90
21734;DHT22;11029;47.820;10.534;2024-03-08T00:14:22;-0.20;79.80
21734;DHT22;11029;47.820;10.534;2024-03-08T00:17:08;-0.20;80.00
21734;DHT22;11029;47.820;10.534;2024-03-08T00:19:54;-0.20;80.10
21734;DHT22;11029;47.820;10.534;2024-03-08T00:22:40;-0.20;80.00
21734;DHT22;11029;47.820;10.534;2024-03-08T00:25:25;-0.20;79.70
21734;DHT22;11029;47.820;10.534;2024-03-08T00:28:11;-0.30;79.00
21734;DHT22;11029;47.820;10.534;2024-03-08T00:31:00;-0.40;79.30
21734;DHT22;11029;47.820;10.534;2024-03-08T00:33:46;-0.50;79.00
21734;DHT22;11029;47.820;10.534;2024-03-08T00:36:32;-0.50;79.40
21734;DHT22;11029;47.820;10.534;2024-03-08T00:39:18;-0.60;79.40
21734;DHT22;11029;47.820;10.534;2024-03-08T00:42:07;-0.60;79.40
21734;DHT22;11029;47.820;10.534;2024-03-08T00:44:53;-0.60;79.40
21734;DHT22;11029;47.820;10.534;2024-03-08T00:47:39;-0.60;79.90
21734;DHT22;11029;47.820;10.534;2024-03-08T00:50:25;-0.60;80.40
21734;DHT22;11029;47.820;10.534;2024-03-08T00:53:11;-0.60;80.30
21734;DHT22;11029;47.820;10.534;2024-03-08T00:55:57;-0.60;79.50
21734;DHT22;11029;47.820;10.534;2024-03-08T00:58:43;-0.70;80.40
21734;DHT22;11029;47.820;10.534;2024-03-08T01:01:28;-0.60;79.90
21734;DHT22;11029;47.820;10.534;2024-03-08T01:04:15;-0.50;80.60
21734;DHT22;11029;47.820;10.534;2024-03-08T01:07:00;-0.40;80.20
21734;DHT22;11029;47.820;10.534;2024-03-08T01:09:46;-0.40;80.20
21734;DHT22;11029;47.820;10.534;2024-03-08T01:12:31;-0.40;79.40
21734;DHT22;11029;47.820;10.534;2024-03-08T01:15:17;-0.30;79.80
21734;DHT22;11029;47.820;10.534;2024-03-08T01:18:03;-0.30;79.90
21734;DHT22;11029;47.820;10.534;2024-03-08T01:20:50;-0.30;80.00
21734;DHT22;11029;47.820;10.534;2024-03-08T01:23:36;-0.20;79.90
21734;DHT22;11029;47.820;10.534;2024-03-08T01:26:21;-0.20;79.50
21734;DHT22;11029;47.820;10.534;2024-03-08T01:29:07;-0.10;80.20
21734;DHT22;11029;47.820;10.534;2024-03-08T01:31:53;0.00;80.10
21734;DHT22;11029;47.820;10.534;2024-03-08T01:34:39;0.00;79.70
21734;DHT22;11029;47.820;10.534;2024-03-08T01:37:24;0.00;79.50
21734;DHT22;11029;47.820;10.534;2024-03-08T01:40:10;0.10;79.40
21734;DHT22;11029;47.820;10.534;2024-03-08T01:42:56;0.10;80.40
21734;DHT22;11029;47.820;10.534;2024-03-08T01:45:41;0.20;80.60
21734;DHT22;11029;47.820;10.534;2024-03-08T01:48:28;0.20;81.20
21734;DHT22;11029;47.820;10.534;2024-03-08T01:51:14;0.30;82.00
21734;DHT22;11029;47.820;10.534;2024-03-08T01:54:01;0.30;82.70
21734;DHT22;11029;47.820;10.534;2024-03-08T01:56:49;0.30;82.40
21734;DHT22;11029;47.820;10.534;2024-03-08T01:59:35;0.30;83.70
21734;DHT22;11029;47.820;10.534;2024-03-08T02:02:22;0.20;83.90
21734;DHT22;11029;47.820;10.534;2024-03-08T02:05:08;0.30;84.40
21734;DHT22;11029;47.820;10.534;2024-03-08T02:07:54;0.30;84.30
21734;DHT22;11029;47.820;10.534;2024-03-08T02:10:46;0.30;84.10
21734;DHT22;11029;47.820;10.534;2024-03-08T02:13:31;0.40;84.10
21734;DHT22;11029;47.820;10.534;2024-03-08T02:16:21;0.50;83.70
21734;DHT22;11029;47.820;10.534;2024-03-08T02:19:08;0.50;83.80
21734;DHT22;11029;47.820;10.534;2024-03-08T02:21:55;0.50;83.90
21734;DHT22;11029;47.820;10.534;2024-03-08T02:24:41;0.50;83.80
21734;DHT22;11029;47.820;10.534;2024-03-08T02:27:27;0.50;83.50
21734;DHT22;11029;47.820;10.534;2024-03-08T02:30:15;0.50;83.90
21734;DHT22;11029;47.820;10.534;2024-03-08T02:33:02;0.40;83.70
21734;DHT22;11029;47.820;10.534;2024-03-08T02:35:49;0.40;84.20
21734;DHT22;11029;47.820;10.534;2024-03-08T02:38:36;0.40;84.10
21734;DHT22;11029;47.820;10.534;2024-03-08T02:41:22;0.40;84.30
21734;DHT22;11029;47.820;10.534;2024-03-08T02:44:08;0.40;84.10
21734;DHT22;11029;47.820;10.534;2024-03-08T02:46:54;0.40;84.50
21734;DHT22;11029;47.820;10.534;2024-03-08T02:49:41;0.40;84.50
21734;DHT22;11029;47.820;10.534;2024-03-08T02:52:28;0.30;84.90
21734;DHT22;11029;47.820;10.534;2024-03-08T02:55:13;0.30;85.10
21734;DHT22;11029;47.820;10.534;2024-03-08T02:58:02;0.20;85.40
21734;DHT22;11029;47.820;10.534;2024-03-08T03:00:49;0.30;85.70
21734;DHT22;11029;47.820;10.534;2024-03-08T03:03:35;0.30;85.50
21734;DHT22;11029;47.820;10.534;2024-03-08T03:06:20;0.30;85.70
21734;DHT22;11029;47.820;10.534;2024-03-08T03:09:06;0.40;85.20
21734;DHT22;11029;47.820;10.534;2024-03-08T03:11:52;0.40;85.30
21734;DHT22;11029;47.820;10.534;2024-03-08T03:14:38;0.40;85.20
21734;DHT22;11029;47.820;10.534;2024-03-08T03:17:24;0.40;85.10
21734;DHT22;11029;47.820;10.534;2024-03-08T03:20:10;0.40;84.70
21734;DHT22;11029;47.820;10.534;2024-03-08T03:22:59;0.30;85.10
21734;DHT22;11029;47.820;10.534;2024-03-08T03:25:47;0.30;85.20
21734;DHT22;11029;47.820;10.534;2024-03-08T03:28:32;0.30;85.40
21734;DHT22;11029;47.820;10.534;2024-03-08T03:31:19;0.40;85.70
21734;DHT22;11029;47.820;10.534;2024-03-08T03:34:05;0.30;85.40
21734;DHT22;11029;47.820;10.534;2024-03-08T03:36:53;0.30;85.60
21734;DHT22;11029;47.820;10.534;2024-03-08T03:39:40;0.30;85.70
21734;DHT22;11029;47.820;10.534;2024-03-08T03:42:37;0.30;85.60
21734;DHT22;11029;47.820;10.534;2024-03-08T03:45:24;0.30;85.90
21734;DHT22;11029;47.820;10.534;2024-03-08T03:48:10;0.20;85.80
21734;DHT22;11029;47.820;10.534;2024-03-08T03:50:57;0.30;86.10
21734;DHT22;11029;47.820;10.534;2024-03-08T03:53:42;0.30;85.70
21734;DHT22;11029;47.820;10.534;2024-03-08T03:56:28;0.30;85.90
21734;DHT22;11029;47.820;10.534;2024-03-08T03:59:13;0.30;86.10
21734;DHT22;11029;47.820;10.534;2024-03-08T04:01:59;0.30;85.70
21734;DHT22;11029;47.820;10.534;2024-03-08T04:04:44;0.30;85.70
21734;DHT22;11029;47.820;10.534;2024-03-08T04:07:31;0.40;85.90
21734;DHT22;11029;47.820;10.534;2024-03-08T04:10:16;0.40;85.80
21734;DHT22;11029;47.820;10.534;2024-03-08T04:13:02;0.30;85.70
21734;DHT22;11029;47.820;10.534;2024-03-08T04:15:49;0.30;85.20
21734;DHT22;11029;47.820;10.534;2024-03-08T04:18:35;0.30;85.60
21734;DHT22;11029;47.820;10.534;2024-03-08T04:21:21;0.30;85.60
21734;DHT22;11029;47.820;10.534;2024-03-08T04:24:07;0.20;85.60
21734;DHT22;11029;47.820;10.534;2024-03-08T04:26:54;0.20;86.50
21734;DHT22;11029;47.820;10.534;2024-03-08T04:29:40;0.20;86.20
21734;DHT22;11029;47.820;10.534;2024-03-08T04:32:26;0.20;86.20
21734;DHT22;11029;47.820;10.534;2024-03-08T04:35:15;0.10;86.00
21734;DHT22;11029;47.820;10.534;2024-03-08T04:38:01;0.10;86.70
21734;DHT22;11029;47.820;10.534;2024-03-08T04:40:47;0.20;86.60
21734;DHT22;11029;47.820;10.534;2024-03-08T04:43:32;0.10;86.10
21734;DHT22;11029;47.820;10.534;2024-03-08T04:46:19;0.10;86.50
21734;DHT22;11029;47.820;10.534;2024-03-08T04:49:05;0.00;86.40
21734;DHT22;11029;47.820;10.534;2024-03-08T04:51:51;0.00;86.30
21734;DHT22;11029;47.820;10.534;2024-03-08T04:54:37;0.00;86.10
21734;DHT22;11029;47.820;10.534;2024-03-08T04:57:22;0.00;86.60
21734;DHT22;11029;47.820;10.534;2024-03-08T05:00:09;0.10;86.30
21734;DHT22;11029;47.820;10.534;2024-03-08T05:02:57;0.10;86.40
21734;DHT22;11029;47.820;10.534;2024-03-08T05:05:43;0.10;86.00
21734;DHT22;11029;47.820;10.534;2024-03-08T05:08:29;0.10;86.20
21734;DHT22;11029;47.820;10.534;2024-03-08T05:11:15;0.10;86.20
21734;DHT22;11029;47.820;10.534;2024-03-08T05:14:00;0.10;85.90
21734;DHT22;11029;47.820;10.534;2024-03-08T05:16:46;0.10;85.60
21734;DHT22;11029;47.820;10.534;2024-03-08T05:19:34;0.00;85.90
21734;DHT22;11029;47.820;10.534;2024-03-08T05:22:21;0.00;86.50
21734;DHT22;11029;47.820;10.534;2024-03-08T05:25:07;-0.10;85.70
21734;DHT22;11029;47.820;10.534;2024-03-08T05:27:56;-0.10;86.50
21734;DHT22;11029;47.820;10.534;2024-03-08T05:30:41;-0.20;86.60
21734;DHT22;11029;47.820;10.534;2024-03-08T05:33:27;-0.10;86.70
21734;DHT22;11029;47.820;10.534;2024-03-08T05:36:13;-0.20;87.00
21734;DHT22;11029;47.820;10.534;2024-03-08T05:39:01;-0.10;86.60
21734;DHT22;11029;47.820;10.534;2024-03-08T05:41:47;-0.20;86.80
21734;DHT22;11029;47.820;10.534;2024-03-08T05:44:33;-0.10;86.90
21734;DHT22;11029;47.820;10.534;2024-03-08T05:47:19;-0.20;86.10
21734;DHT22;11029;47.820;10.534;2024-03-08T05:50:05;-0.20;86.30
21734;DHT22;11029;47.820;10.534;2024-03-08T05:52:55;-0.20;86.20
21734;DHT22;11029;47.820;10.534;2024-03-08T05:55:42;-0.20;86.20
21734;DHT22;11029;47.820;10.534;2024-03-08T05:58:28;-0.20;86.10
21734;DHT22;11029;47.820;10.534;2024-03-08T06:01:17;-0.20;85.80
21734;DHT22;11029;47.820;10.534;2024-03-08T06:04:03;-0.20;86.50
21734;DHT22;11029;47.820;10.534;2024-03-08T06:06:49;-0.20;86.50
21734;DHT22;11029;47.820;10.534;2024-03-08T06:09:37;-0.10;86.20
21734;DHT22;11029;47.820;10.534;2024-03-08T06:12:23;-0.10;86.30
21734;DHT22;11029;47.820;10.534;2024-03-08T06:15:27;-0.10;85.70
21734;DHT22;11029;47.820;10.534;2024-03-08T06:18:13;-0.20;85.60
21734;DHT22;11029;47.820;10.534;2024-03-08T06:21:00;-0.20;85.10
21734;DHT22;11029;47.820;10.534;2024-03-08T06:23:47;-0.20;85.40
21734;DHT22;11029;47.820;10.534;2024-03-08T06:26:32;-0.20;85.90
21734;DHT22;11029;47.820;10.534;2024-03-08T06:29:22;-0.10;85.60
21734;DHT22;11029;47.820;10.534;2024-03-08T06:32:08;-0.10;85.10
21734;DHT22;11029;47.820;10.534;2024-03-08T06:34:54;-0.20;85.20
21734;DHT22;11029;47.820;10.534;2024-03-08T06:37:39;-0.20;84.90
21734;DHT22;11029;47.820;10.534;2024-03-08T06:40:27;-0.30;86.00
21734;DHT22;11029;47.820;10.534;2024-03-08T06:43:14;-0.20;85.80
21734;DHT22;11029;47.820;10.534;2024-03-08T06:46:01;-0.20;85.90
21734;DHT22;11029;47.820;10.534;2024-03-08T06:48:49;-0.10;85.80
21734;DHT22;11029;47.820;10.534;2024-03-08T06:51:35;-0.10;84.80
21734;DHT22;11029;47.820;10.534;2024-03-08T06:54:21;-0.10;85.20
21734;DHT22;11029;47.820;10.534;2024-03-08T06:57:07;-0.10;85.20
21734;DHT22;11029;47.820;10.534;2024-03-08T06:59:52;-0.10;85.50
21734;DHT22;11029;47.820;10.534;2024-03-08T07:02:42;-0.10;85.20
21734;DHT22;11029;47.820;10.534;2024-03-08T07:05:31;-0.10;85.20
21734;DHT22;11029;47.820;10.534;2024-03-08T07:08:17;0.00;85.30
21734;DHT22;11029;47.820;10.534;2024-03-08T07:11:04;0.00;84.80
21734;DHT22;11029;47.820;10.534;2024-03-08T07:13:50;0.00;84.60
21734;DHT22;11029;47.820;10.534;2024-03-08T07:16:35;0.10;84.70
21734;DHT22;11029;47.820;10.534;2024-03-08T07:19:21;0.10;84.30
21734;DHT22;11029;47.820;10.534;2024-03-08T07:22:06;0.10;83.70
21734;DHT22;11029;47.820;10.534;2024-03-08T07:24:53;0.10;83.00
21734;DHT22;11029;47.820;10.534;2024-03-08T07:28:02;0.10;83.20
21734;DHT22;11029;47.820;10.534;2024-03-08T07:30:47;0.20;83.60
21734;DHT22;11029;47.820;10.534;2024-03-08T07:33:33;0.30;83.50
21734;DHT22;11029;47.820;10.534;2024-03-08T07:36:19;0.30;83.50
21734;DHT22;11029;47.820;10.534;2024-03-08T07:39:05;0.30;82.90
21734;DHT22;11029;47.820;10.534;2024-03-08T07:41:57;0.30;83.60
21734;DHT22;11029;47.820;10.534;2024-03-08T07:44:42;0.40;83.10
21734;DHT22;11029;47.820;10.534;2024-03-08T07:47:28;0.40;82.30
21734;DHT22;11029;47.820;10.534;2024-03-08T07:50:16;0.50;82.80
21734;DHT22;11029;47.820;10.534;2024-03-08T07:53:02;0.50;83.00
21734;DHT22;11029;47.820;10.534;2024-03-08T07:55:48;0.60;82.80
21734;DHT22;11029;47.820;10.534;2024-03-08T07:58:34;0.60;82.50
21734;DHT22;11029;47.820;10.534;2024-03-08T08:01:20;0.60;82.50
21734;DHT22;11029;47.820;10.534;2024-03-08T08:04:06;0.60;82.00
21734;DHT22;11029;47.820;10.534;2024-03-08T08:06:52;0.70;82.30
21734;DHT22;11029;47.820;10.534;2024-03-08T08:09:40;0.70;81.70
21734;DHT22;11029;47.820;10.534;2024-03-08T08:12:28;0.70;81.90
21734;DHT22;11029;47.820;10.534;2024-03-08T08:15:14;0.80;81.10
21734;DHT22;11029;47.820;10.534;2024-03-08T08:18:00;0.70;80.90
21734;DHT22;11029;47.820;10.534;2024-03-08T08:20:48;0.60;81.70
21734;DHT22;11029;47.820;10.534;2024-03-08T08:23:33;0.70;81.90
21734;DHT22;11029;47.820;10.534;2024-03-08T08:26:19;0.80;81.90
21734;DHT22;11029;47.820;10.534;2024-03-08T08:29:07;0.80;81.10
21734;DHT22;11029;47.820;10.534;2024-03-08T08:31:52;0.90;82.20
21734;DHT22;11029;47.820;10.534;2024-03-08T08:34:39;0.90;81.60
21734;DHT22;11029;47.820;10.534;2024-03-08T08:37:24;0.90;81.50
21734;DHT22;11029;47.820;10.534;2024-03-08T08:40:11;0.90;81.50
21734;DHT22;11029;47.820;10.534;2024-03-08T08:43:01;1.00;82.20
21734;DHT22;11029;47.820;10.534;2024-03-08T08:45:49;1.10;82.10
21734;DHT22;11029;47.820;10.534;2024-03-08T08:48:39;1.30;81.20
21734;DHT22;11029;47.820;10.534;2024-03-08T08:51:26;1.40;80.80
21734;DHT22;11029;47.820;10.534;2024-03-08T08:54:13;1.60;79.00
21734;DHT22;11029;47.820;10.534;2024-03-08T08:57:02;1.60;79.30
21734;DHT22;11029;47.820;10.534;2024-03-08T08:59:52;1.50;78.40
21734;DHT22;11029;47.820;10.534;2024-03-08T09:02:38;1.50;79.50
21734;DHT22;11029;47.820;10.534;2024-03-08T09:05:24;1.70;79.00
21734;DHT22;11029;47.820;10.534;2024-03-08T09:08:09;1.70;78.60
21734;DHT22;11029;47.820;10.534;2024-03-08T09:10:56;1.90;78.10
21734;DHT22;11029;47.820;10.534;2024-03-08T09:13:44;1.90;77.00
21734;DHT22;11029;47.820;10.534;2024-03-08T09:16:31;2.00;76.50
21734;DHT22;11029;47.820;10.534;2024-03-08T09:19:18;2.00;77.00
21734;DHT22;11029;47.820;10.534;2024-03-08T09:22:05;2.10;76.80
21734;DHT22;11029;47.820;10.534;2024-03-08T09:24:50;2.20;76.60
21734;DHT22;11029;47.820;10.534;2024-03-08T09:27:36;2.30;76.80
21734;DHT22;11029;47.820;10.534;2024-03-08T09:30:24;2.40;74.50
21734;DHT22;11029;47.820;10.534;2024-03-08T09:33:10;2.50;74.50
21734;DHT22;11029;47.820;10.534;2024-03-08T09:35:57;2.60;75.30
21734;DHT22;11029;47.820;10.534;2024-03-08T09:38:48;2.80;75.30
21734;DHT22;11029;47.820;10.534;2024-03-08T09:41:35;2.90;74.50
21734;DHT22;11029;47.820;10.534;2024-03-08T09:44:21;3.00;73.90
21734;DHT22;11029;47.820;10.534;2024-03-08T09:47:08;3.00;73.00
21734;DHT22;11029;47.820;10.534;2024-03-08T09:49:55;3.00;72.80
21734;DHT22;11029;47.820;10.534;2024-03-08T09:52:41;3.10;72.80
21734;DHT22;11029;47.820;10.534;2024-03-08T09:55:29;3.20;72.60
21734;DHT22;11029;47.820;10.534;2024-03-08T09:58:19;3.20;72.50
21734;DHT22;11029;47.820;10.534;2024-03-08T10:01:05;3.20;73.00
21734;DHT22;11029;47.820;10.534;2024-03-08T10:03:52;3.10;72.90
21734;DHT22;11029;47.820;10.534;2024-03-08T10:06:40;3.00;73.80
21734;DHT22;11029;47.820;10.534;2024-03-08T10:09:25;3.00;73.70
21734;DHT22;11029;47.820;10.534;2024-03-08T10:12:13;2.90;74.90
21734;DHT22;11029;47.820;10.534;2024-03-08T10:14:58;3.00;74.10
21734;DHT22;11029;47.820;10.534;2024-03-08T10:17:44;3.20;73.80
21734;DHT22;11029;47.820;10.534;2024-03-08T10:20:31;3.50;73.40
21734;DHT22;11029;47.820;10.534;2024-03-08T10:23:18;3.60;72.40
21734;DHT22;11029;47.820;10.534;2024-03-08T10:26:13;3.60;72.30
21734;DHT22;11029;47.820;10.534;2024-03-08T10:29:03;3.70;72.20
21734;DHT22;11029;47.820;10.534;2024-03-08T10:31:50;3.90;70.90
21734;DHT22;11029;47.820;10.534;2024-03-08T10:34:36;4.00;70.30
21734;DHT22;11029;47.820;10.534;2024-03-08T10:37:22;4.00;70.10
21734;DHT22;11029;47.820;10.534;2024-03-08T10:40:10;4.00;69.80
21734;DHT22;11029;47.820;10.534;2024-03-08T10:43:02;4.00;70.40
21734;DHT22;11029;47.820;10.534;2024-03-08T10:46:04;4.00;70.50
21734;DHT22;11029;47.820;10.534;2024-03-08T10:49:00;4.00;70.80
21734;DHT22;11029;47.820;10.534;2024-03-08T10:51:50;4.20;71.30
21734;DHT22;11029;47.820;10.534;2024-03-08T10:54:37;4.50;70.80
21734;DHT22;11029;47.820;10.534;2024-03-08T10:57:30;5.00;68.60
21734;DHT22;11029;47.820;10.534;2024-03-08T11:00:16;5.50;68.60
21734;DHT22;11029;47.820;10.534;2024-03-08T11:03:04;5.60;66.90
21734;DHT22;11029;47.820;10.534;2024-03-08T11:05:50;5.70;66.90
21734;DHT22;11029;47.820;10.534;2024-03-08T11:08:36;5.70;65.60
21734;DHT22;11029;47.820;10.534;2024-03-08T11:11:32;5.60;66.50
21734;DHT22;11029;47.820;10.534;2024-03-08T11:14:43;5.50;66.80
21734;DHT22;11029;47.820;10.534;2024-03-08T11:20:18;5.60;66.80
21734;DHT22;11029;47.820;10.534;2024-03-08T11:23:07;5.50;65.70
21734;DHT22;11029;47.820;10.534;2024-03-08T11:25:56;5.50;66.30
21734;DHT22;11029;47.820;10.534;2024-03-08T11:28:42;5.90;66.10
21734;DHT22;11029;47.820;10.534;2024-03-08T11:31:27;6.40;64.90
21734;DHT22;11029;47.820;10.534;2024-03-08T11:34:17;6.60;63.00
21734;DHT22;11029;47.820;10.534;2024-03-08T11:37:05;6.70;63.00
21734;DHT22;11029;47.820;10.534;2024-03-08T11:39:55;6.70;62.90
21734;DHT22;11029;47.820;10.534;2024-03-08T11:42:50;6.70;62.80
21734;DHT22;11029;47.820;10.534;2024-03-08T11:45:38;6.80;61.90
21734;DHT22;11029;47.820;10.534;2024-03-08T11:48:25;6.50;63.10
21734;DHT22;11029;47.820;10.534;2024-03-08T11:51:12;6.30;64.00
21734;DHT22;11029;47.820;10.534;2024-03-08T11:53:59;6.30;64.60
21734;DHT22;11029;47.820;10.534;2024-03-08T11:56:45;6.20;64.80
21734;DHT22;11029;47.820;10.534;2024-03-08T11:59:32;6.00;65.80
21734;DHT22;11029;47.820;10.534;2024-03-08T12:02:18;5.90;66.00
21734;DHT22;11029;47.820;10.534;2024-03-08T12:05:06;5.50;66.70
21734;DHT22;11029;47.820;10.534;2024-03-08T12:07:58;5.40;67.70
21734;DHT22;11029;47.820;10.534;2024-03-08T12:10:44;5.50;67.90
21734;DHT22;11029;47.820;10.534;2024-03-08T12:13:32;5.70;67.90
21734;DHT22;11029;47.820;10.534;2024-03-08T12:16:20;6.00;68.20
21734;DHT22;11029;47.820;10.534;2024-03-08T12:19:08;6.20;67.10
21734;DHT22;11029;47.820;10.534;2024-03-08T12:21:55;6.20;67.20
21734;DHT22;11029;47.820;10.534;2024-03-08T12:24:41;6.40;66.80
21734;DHT22;11029;47.820;10.534;2024-03-08T12:27:27;6.70;66.30
21734;DHT22;11029;47.820;10.534;2024-03-08T12:33:05;7.30;64.80
21734;DHT22;11029;47.820;10.534;2024-03-08T12:35:52;7.00;64.50
21734;DHT22;11029;47.820;10.534;2024-03-08T12:38:47;6.80;66.20
21734;DHT22;11029;47.820;10.534;2024-03-08T12:41:39;7.00;65.50
21734;DHT22;11029;47.820;10.534;2024-03-08T12:44:26;7.20;66.00
21734;DHT22;11029;47.820;10.534;2024-03-08T12:47:13;7.50;65.20
21734;DHT22;11029;47.820;10.534;2024-03-08T12:49:59;7.60;63.60
21734;DHT22;11029;47.820;10.534;2024-03-08T12:52:45;7.50;62.50
21734;DHT22;11029;47.820;10.534;2024-03-08T12:55:31;7.40;62.10
21734;DHT22;11029;47.820;10.534;2024-03-08T12:58:20;7.60;62.30
21734;DHT22;11029;47.820;10.534;2024-03-08T13:01:06;7.80;61.60
21734;DHT22;11029;47.820;10.534;2024-03-08T13:03:53;8.20;61.30
21734;DHT22;11029;47.820;10.534;2024-03-08T13:06:40;8.50;61.70
21734;DHT22;11029;47.820;10.534;2024-03-08T13:09:26;8.70;59.40
21734;DHT22;11029;47.820;10.534;2024-03-08T13:12:13;8.80;60.00
21734;DHT22;11029;47.820;10.534;2024-03-08T13:14:58;9.00;60.90
21734;DHT22;11029;47.820;10.534;2024-03-08T13:17:44;9.50;59.40
21734;DHT22;11029;47.820;10.534;2024-03-08T13:20:32;9.60;58.00
21734;DHT22;11029;47.820;10.534;2024-03-08T13:23:27;9.50;58.60
21734;DHT22;11029;47.820;10.534;2024-03-08T13:26:13;9.50;58.50
21734;DHT22;11029;47.820;10.534;2024-03-08T13:29:00;9.50;58.40
21734;DHT22;11029;47.820;10.534;2024-03-08T13:31:46;9.50;58.80
21734;DHT22;11029;47.820;10.534;2024-03-08T13:34:40;9.50;58.70
21734;DHT22;11029;47.820;10.534;2024-03-08T13:37:26;9.80;58.90
21734;DHT22;11029;47.820;10.534;2024-03-08T13:40:12;10.00;58.30
21734;DHT22;11029;47.820;10.534;2024-03-08T13:42:59;10.30;58.30
21734;DHT22;11029;47.820;10.534;2024-03-08T13:45:47;10.70;57.00
21734;DHT22;11029;47.820;10.534;2024-03-08T13:48:34;10.90;55.30
21734;DHT22;11029;47.820;10.534;2024-03-08T13:51:20;10.90;55.80
21734;DHT22;11029;47.820;10.534;2024-03-08T13:54:07;11.30;54.90
21734;DHT22;11029;47.820;10.534;2024-03-08T13:56:53;11.20;55.10
21734;DHT22;11029;47.820;10.534;2024-03-08T13:59:39;11.10;55.00
21734;DHT22;11029;47.820;10.534;2024-03-08T14:02:25;11.30;54.80
21734;DHT22;11029;47.820;10.534;2024-03-08T14:05:13;11.60;54.40
21734;DHT22;11029;47.820;10.534;2024-03-08T14:08:03;11.50;54.30
21734;DHT22;11029;47.820;10.534;2024-03-08T14:10:50;11.80;53.70
21734;DHT22;11029;47.820;10.534;2024-03-08T14:13:44;11.90;53.00
21734;DHT22;11029;47.820;10.534;2024-03-08T14:16:31;12.10;53.30
21734;DHT22;11029;47.820;10.534;2024-03-08T14:19:16;12.30;52.50
21734;DHT22;11029;47.820;10.534;2024-03-08T14:22:02;12.30;52.00
21734;DHT22;11029;47.820;10.534;2024-03-08T14:24:49;12.50;51.60
21734;DHT22;11029;47.820;10.534;2024-03-08T14:27:36;12.90;51.40
21734;DHT22;11029;47.820;10.534;2024-03-08T14:30:22;13.20;49.30
21734;DHT22;11029;47.820;10.534;2024-03-08T14:33:26;13.60;49.20
21734;DHT22;11029;47.820;10.534;2024-03-08T14:36:13;14.30;48.00
21734;DHT22;11029;47.820;10.534;2024-03-08T14:38:59;15.20;45.80
21734;DHT22;11029;47.820;10.534;2024-03-08T14:41:44;16.20;43.80
21734;DHT22;11029;47.820;10.534;2024-03-08T14:44:30;17.30;42.20
21734;DHT22;11029;47.820;10.534;2024-03-08T14:47:15;18.80;39.90
21734;DHT22;11029;47.820;10.534;2024-03-08T14:50:02;20.20;36.90
21734;DHT22;11029;47.820;10.534;2024-03-08T14:52:47;21.20;36.00
21734;DHT22;11029;47.820;10.534;2024-03-08T14:55:33;22.10;34.30
21734;DHT22;11029;47.820;10.534;2024-03-08T14:58:20;23.20;32.70
21734;DHT22;11029;47.820;10.534;2024-03-08T15:01:07;24.30;31.00
21734;DHT22;11029;47.820;10.534;2024-03-08T15:03:53;24.40;30.10
21734;DHT22;11029;47.820;10.534;2024-03-08T15:06:39;24.50;30.30
21734;DHT22;11029;47.820;10.534;2024-03-08T15:09:25;24.80;29.30
21734;DHT22;11029;47.820;10.534;2024-03-08T15:12:11;25.10;29.10
21734;DHT22;11029;47.820;10.534;2024-03-08T15:14:56;25.00;29.10
21734;DHT22;11029;47.820;10.534;2024-03-08T15:17:42;25.10;29.30
21734;DHT22;11029;47.820;10.534;2024-03-08T15:20:27;25.40;28.70
21734;DHT22;11029;47.820;10.534;2024-03-08T15:23:15;24.90;29.00
21734;DHT22;11029;47.820;10.534;2024-03-08T15:26:02;24.70;29.20
21734;DHT22;11029;47.820;10.534;2024-03-08T15:28:49;25.00;28.30
21734;DHT22;11029;47.820;10.534;2024-03-08T15:31:37;24.90;28.60
21734;DHT22;11029;47.820;10.534;2024-03-08T15:34:23;24.90;28.60
21734;DHT22;11029;47.820;10.534;2024-03-08T15:37:10;24.90;28.70
21734;DHT22;11029;47.820;10.534;2024-03-08T15:40:00;25.20;28.40
21734;DHT22;11029;47.820;10.534;2024-03-08T15:45:37;25.00;28.60
21734;DHT22;11029;47.820;10.534;2024-03-08T15:48:23;24.80;28.10
21734;DHT22;11029;47.820;10.534;2024-03-08T15:51:09;24.00;29.30
21734;DHT22;11029;47.820;10.534;2024-03-08T15:53:56;24.10;29.40
21734;DHT22;11029;47.820;10.534;2024-03-08T15:56:42;24.20;29.20
21734;DHT22;11029;47.820;10.534;2024-03-08T15:59:28;23.50;29.70
21734;DHT22;11029;47.820;10.534;2024-03-08T16:02:14;22.80;30.50
21734;DHT22;11029;47.820;10.534;2024-03-08T16:05:00;22.70;31.20
21734;DHT22;11029;47.820;10.534;2024-03-08T16:07:46;22.80;30.80
21734;DHT22;11029;47.820;10.534;2024-03-08T16:10:32;22.60;31.00
21734;DHT22;11029;47.820;10.534;2024-03-08T16:13:19;22.90;30.80
21734;DHT22;11029;47.820;10.534;2024-03-08T16:16:06;22.40;30.90
21734;DHT22;11029;47.820;10.534;2024-03-08T16:18:52;21.70;31.60
21734;DHT22;11029;47.820;10.534;2024-03-08T16:21:37;20.60;32.60
21734;DHT22;11029;47.820;10.534;2024-03-08T16:24:24;19.90;33.50
21734;DHT22;11029;47.820;10.534;2024-03-08T16:27:09;19.50;33.70
21734;DHT22;11029;47.820;10.534;2024-03-08T16:29:55;19.40;34.30
21734;DHT22;11029;47.820;10.534;2024-03-08T16:32:44;19.00;34.70
21734;DHT22;11029;47.820;10.534;2024-03-08T16:35:35;18.40;35.30
21734;DHT22;11029;47.820;10.534;2024-03-08T16:38:24;17.20;37.00
21734;DHT22;11029;47.820;10.534;2024-03-08T16:41:10;15.70;39.10
21734;DHT22;11029;47.820;10.534;2024-03-08T16:43:57;14.10;42.00
21734;DHT22;11029;47.820;10.534;2024-03-08T16:46:48;13.00;44.30
21734;DHT22;11029;47.820;10.534;2024-03-08T16:49:34;11.90;47.30
21734;DHT22;11029;47.820;10.534;2024-03-08T16:52:20;11.10;49.00
21734;DHT22;11029;47.820;10.534;2024-03-08T16:55:08;10.40;51.30
21734;DHT22;11029;47.820;10.534;2024-03-08T16:57:59;10.00;52.60
21734;DHT22;11029;47.820;10.534;2024-03-08T17:00:45;9.50;54.30
21734;DHT22;11029;47.820;10.534;2024-03-08T17:03:30;9.30;55.40
21734;DHT22;11029;47.820;10.534;2024-03-08T17:06:20;9.10;56.20
21734;DHT22;11029;47.820;10.534;2024-03-08T17:09:08;8.90;56.60
21734;DHT22;11029;47.820;10.534;2024-03-08T17:12:00;8.70;57.30
21734;DHT22;11029;47.820;10.534;2024-03-08T17:14:50;8.40;58.20
21734;DHT22;11029;47.820;10.534;2024-03-08T17:17:35;8.20;58.50
21734;DHT22;11029;47.820;10.534;2024-03-08T17:20:22;8.10;58.60
21734;DHT22;11029;47.820;10.534;2024-03-08T17:23:09;7.90;59.00
21734;DHT22;11029;47.820;10.534;2024-03-08T17:25:59;7.80;59.20
21734;DHT22;11029;47.820;10.534;2024-03-08T17:28:45;7.70;59.50
21734;DHT22;11029;47.820;10.534;2024-03-08T17:31:33;7.50;60.00
21734;DHT22;11029;47.820;10.534;2024-03-08T17:34:21;7.50;60.20
21734;DHT22;11029;47.820;10.534;2024-03-08T17:37:06;7.30;59.80